Terminal Aerodrome Forecast
Issued by NWS Jacksonville, FL

Home | Current Version | Previous Version | Text Only | Print | Product List | Glossary On
Versions: 1 2 3 4 5 6 7 8 9 10 11 12 13 14 15
000
FTUS42 KJAX 052321
TAFGNV
TAF
KGNV 052321Z 0600/0624 11004KT P6SM BKN110
     FM060900 00000KT 5SM BR SCT100 BKN200
     FM061200 27005KT P6SM SCT030 BKN250
     FM061800 26007KT P6SM VCTS SCT040CB=

USA.gov is the U.S. government's official web portal to all federal, state and local government web resources and services.